sensor_id;sensor_type;location;lat;lon;timestamp;temperature;humidity
81842;DHT22;71284;50.918;7.092;2024-02-26T00:01:05;11.30;44.80
81842;DHT22;71284;50.918;7.092;2024-02-26T00:03:32;11.20;46.50
81842;DHT22;71284;50.918;7.092;2024-02-26T00:05:58;11.10;47.50
81842;DHT22;71284;50.918;7.092;2024-02-26T00:08:25;10.70;48.10
81842;DHT22;71284;50.918;7.092;2024-02-26T00:10:52;10.70;48.30
81842;DHT22;71284;50.918;7.092;2024-02-26T00:13:18;10.50;49.40
81842;DHT22;71284;50.918;7.092;2024-02-26T00:15:45;10.40;49.60
81842;DHT22;71284;50.918;7.092;2024-02-26T00:18:11;10.40;49.50
81842;DHT22;71284;50.918;7.092;2024-02-26T00:20:38;10.30;50.30
81842;DHT22;71284;50.918;7.092;2024-02-26T00:23:04;10.30;50.70
81842;DHT22;71284;50.918;7.092;2024-02-26T00:25:31;10.30;51.10
81842;DHT22;71284;50.918;7.092;2024-02-26T00:27:58;10.10;52.20
81842;DHT22;71284;50.918;7.092;2024-02-26T00:30:24;9.90;52.30
81842;DHT22;71284;50.918;7.092;2024-02-26T00:32:51;9.50;53.10
81842;DHT22;71284;50.918;7.092;2024-02-26T00:35:22;9.50;54.00
81842;DHT22;71284;50.918;7.092;2024-02-26T00:37:49;9.20;54.60
81842;DHT22;71284;50.918;7.092;2024-02-26T00:40:15;9.00;55.30
81842;DHT22;71284;50.918;7.092;2024-02-26T00:42:42;9.10;55.50
81842;DHT22;71284;50.918;7.092;2024-02-26T00:45:09;9.30;55.10
81842;DHT22;71284;50.918;7.092;2024-02-26T00:47:36;9.30;54.90
81842;DHT22;71284;50.918;7.092;2024-02-26T00:50:03;9.20;54.70
81842;DHT22;71284;50.918;7.092;2024-02-26T00:52:29;9.30;54.10
81842;DHT22;71284;50.918;7.092;2024-02-26T00:54:56;9.40;53.80
81842;DHT22;71284;50.918;7.092;2024-02-26T00:57:22;9.50;53.90
81842;DHT22;71284;50.918;7.092;2024-02-26T00:59:49;9.40;54.20
81842;DHT22;71284;50.918;7.092;2024-02-26T01:02:16;9.50;53.90
81842;DHT22;71284;50.918;7.092;2024-02-26T01:04:42;9.70;53.70
81842;DHT22;71284;50.918;7.092;2024-02-26T01:07:09;9.50;53.30
81842;DHT22;71284;50.918;7.092;2024-02-26T01:09:35;9.70;54.20
81842;DHT22;71284;50.918;7.092;2024-02-26T01:12:02;9.40;54.50
81842;DHT22;71284;50.918;7.092;2024-02-26T01:14:29;9.30;55.70
81842;DHT22;71284;50.918;7.092;2024-02-26T01:16:55;9.30;55.10
81842;DHT22;71284;50.918;7.092;2024-02-26T01:19:22;9.30;55.40
81842;DHT22;71284;50.918;7.092;2024-02-26T01:21:48;9.30;55.90
81842;DHT22;71284;50.918;7.092;2024-02-26T01:24:15;9.30;55.50
81842;DHT22;71284;50.918;7.092;2024-02-26T01:26:42;9.30;55.90
81842;DHT22;71284;50.918;7.092;2024-02-26T01:29:08;9.10;56.80
81842;DHT22;71284;50.918;7.092;2024-02-26T01:31:35;9.00;55.60
81842;DHT22;71284;50.918;7.092;2024-02-26T01:34:01;9.00;56.90
81842;DHT22;71284;50.918;7.092;2024-02-26T01:36:28;9.10;57.50
81842;DHT22;71284;50.918;7.092;2024-02-26T01:38:55;9.10;57.80
81842;DHT22;71284;50.918;7.092;2024-02-26T01:41:21;9.20;58.00
81842;DHT22;71284;50.918;7.092;2024-02-26T01:43:48;9.20;57.00
81842;DHT22;71284;50.918;7.092;2024-02-26T01:46:14;9.30;58.50
81842;DHT22;71284;50.918;7.092;2024-02-26T01:48:42;9.20;58.10
81842;DHT22;71284;50.918;7.092;2024-02-26T01:51:09;9.00;58.80
81842;DHT22;71284;50.918;7.092;2024-02-26T01:53:35;9.10;59.10
81842;DHT22;71284;50.918;7.092;2024-02-26T01:56:02;9.00;59.00
81842;DHT22;71284;50.918;7.092;2024-02-26T01:58:28;9.10;59.00
81842;DHT22;71284;50.918;7.092;2024-02-26T02:00:55;9.00;59.10
81842;DHT22;71284;50.918;7.092;2024-02-26T02:03:22;9.00;60.40
81842;DHT22;71284;50.918;7.092;2024-02-26T02:05:48;9.20;59.60
81842;DHT22;71284;50.918;7.092;2024-02-26T02:08:14;9.20;59.40
81842;DHT22;71284;50.918;7.092;2024-02-26T02:10:42;9.40;59.30
81842;DHT22;71284;50.918;7.092;2024-02-26T02:13:09;9.40;59.30
81842;DHT22;71284;50.918;7.092;2024-02-26T02:15:35;9.30;59.70
81842;DHT22;71284;50.918;7.092;2024-02-26T02:18:02;9.20;59.60
81842;DHT22;71284;50.918;7.092;2024-02-26T02:20:32;9.40;59.50
81842;DHT22;71284;50.918;7.092;2024-02-26T02:22:58;9.50;59.20
81842;DHT22;71284;50.918;7.092;2024-02-26T02:25:24;9.40;59.50
81842;DHT22;71284;50.918;7.092;2024-02-26T02:27:51;9.40;59.10
81842;DHT22;71284;50.918;7.092;2024-02-26T02:30:18;9.40;60.10
81842;DHT22;71284;50.918;7.092;2024-02-26T02:32:44;9.30;59.00
81842;DHT22;71284;50.918;7.092;2024-02-26T02:35:11;9.20;59.70
81842;DHT22;71284;50.918;7.092;2024-02-26T02:37:37;9.10;59.60
81842;DHT22;71284;50.918;7.092;2024-02-26T02:40:05;9.30;59.50
81842;DHT22;71284;50.918;7.092;2024-02-26T02:42:32;9.30;60.10
81842;DHT22;71284;50.918;7.092;2024-02-26T02:44:58;9.30;59.70
81842;DHT22;71284;50.918;7.092;2024-02-26T02:47:25;9.20;60.20
81842;DHT22;71284;50.918;7.092;2024-02-26T02:49:51;9.00;60.80
81842;DHT22;71284;50.918;7.092;2024-02-26T02:52:18;9.10;60.10
81842;DHT22;71284;50.918;7.092;2024-02-26T02:54:44;9.10;60.50
81842;DHT22;71284;50.918;7.092;2024-02-26T02:57:11;9.20;60.20
81842;DHT22;71284;50.918;7.092;2024-02-26T02:59:39;9.20;59.40
81842;DHT22;71284;50.918;7.092;2024-02-26T03:02:04;9.30;59.70
81842;DHT22;71284;50.918;7.092;2024-02-26T03:04:31;9.20;59.80
81842;DHT22;71284;50.918;7.092;2024-02-26T03:06:57;9.30;60.00
81842;DHT22;71284;50.918;7.092;2024-02-26T03:09:24;9.30;60.10
81842;DHT22;71284;50.918;7.092;2024-02-26T03:11:51;9.40;59.90
81842;DHT22;71284;50.918;7.092;2024-02-26T03:14:17;9.30;60.20
81842;DHT22;71284;50.918;7.092;2024-02-26T03:16:44;9.20;61.40
81842;DHT22;71284;50.918;7.092;2024-02-26T03:19:10;9.10;60.90
81842;DHT22;71284;50.918;7.092;2024-02-26T03:21:37;9.10;61.30
81842;DHT22;71284;50.918;7.092;2024-02-26T03:24:05;8.90;61.70
81842;DHT22;71284;50.918;7.092;2024-02-26T03:26:32;9.00;61.70
81842;DHT22;71284;50.918;7.092;2024-02-26T03:28:58;9.00;62.50
81842;DHT22;71284;50.918;7.092;2024-02-26T03:31:25;8.90;62.50
81842;DHT22;71284;50.918;7.092;2024-02-26T03:33:51;8.80;62.20
81842;DHT22;71284;50.918;7.092;2024-02-26T03:36:18;9.10;62.30
81842;DHT22;71284;50.918;7.092;2024-02-26T03:38:45;9.40;61.30
81842;DHT22;71284;50.918;7.092;2024-02-26T03:41:11;9.20;62.50
81842;DHT22;71284;50.918;7.092;2024-02-26T03:43:38;9.00;62.20
81842;DHT22;71284;50.918;7.092;2024-02-26T03:46:07;9.20;61.80
81842;DHT22;71284;50.918;7.092;2024-02-26T03:48:31;9.20;62.80
81842;DHT22;71284;50.918;7.092;2024-02-26T03:50:58;9.30;62.40
81842;DHT22;71284;50.918;7.092;2024-02-26T03:53:24;9.40;62.00
81842;DHT22;71284;50.918;7.092;2024-02-26T03:55:51;9.30;62.50
81842;DHT22;71284;50.918;7.092;2024-02-26T03:58:17;9.00;63.10
81842;DHT22;71284;50.918;7.092;2024-02-26T04:00:44;9.10;63.10
81842;DHT22;71284;50.918;7.092;2024-02-26T04:03:10;9.20;62.70
81842;DHT22;71284;50.918;7.092;2024-02-26T04:05:37;9.20;62.70
81842;DHT22;71284;50.918;7.092;2024-02-26T04:08:04;9.30;62.70
81842;DHT22;71284;50.918;7.092;2024-02-26T04:10:31;9.30;62.50
81842;DHT22;71284;50.918;7.092;2024-02-26T04:12:57;9.30;62.60
81842;DHT22;71284;50.918;7.092;2024-02-26T04:15:24;9.30;63.10
81842;DHT22;71284;50.918;7.092;2024-02-26T04:17:51;9.40;62.70
81842;DHT22;71284;50.918;7.092;2024-02-26T04:20:17;9.30;63.00
81842;DHT22;71284;50.918;7.092;2024-02-26T04:22:44;9.40;62.80
81842;DHT22;71284;50.918;7.092;2024-02-26T04:25:11;9.30;62.80
81842;DHT22;71284;50.918;7.092;2024-02-26T04:27:37;9.30;63.00
81842;DHT22;71284;50.918;7.092;2024-02-26T04:30:05;9.50;62.90
81842;DHT22;71284;50.918;7.092;2024-02-26T04:32:31;9.40;63.50
81842;DHT22;71284;50.918;7.092;2024-02-26T04:34:58;9.30;63.40
81842;DHT22;71284;50.918;7.092;2024-02-26T04:37:25;9.40;63.10
81842;DHT22;71284;50.918;7.092;2024-02-26T04:39:51;9.30;63.60
81842;DHT22;71284;50.918;7.092;2024-02-26T04:42:18;9.40;63.70
81842;DHT22;71284;50.918;7.092;2024-02-26T04:44:44;9.30;64.00
81842;DHT22;71284;50.918;7.092;2024-02-26T04:47:11;9.30;64.10
81842;DHT22;71284;50.918;7.092;2024-02-26T04:49:37;9.10;64.00
81842;DHT22;71284;50.918;7.092;2024-02-26T04:52:04;9.20;64.40
81842;DHT22;71284;50.918;7.092;2024-02-26T04:54:31;9.10;64.00
81842;DHT22;71284;50.918;7.092;2024-02-26T04:56:58;9.00;65.00
81842;DHT22;71284;50.918;7.092;2024-02-26T04:59:24;8.90;65.60
81842;DHT22;71284;50.918;7.092;2024-02-26T05:01:51;8.90;65.50
81842;DHT22;71284;50.918;7.092;2024-02-26T05:04:17;9.00;64.90
81842;DHT22;71284;50.918;7.092;2024-02-26T05:06:44;9.00;65.10
81842;DHT22;71284;50.918;7.092;2024-02-26T05:09:11;9.00;65.20
81842;DHT22;71284;50.918;7.092;2024-02-26T05:11:37;8.90;65.00
81842;DHT22;71284;50.918;7.092;2024-02-26T05:14:04;8.60;66.90
81842;DHT22;71284;50.918;7.092;2024-02-26T05:16:30;8.70;66.50
81842;DHT22;71284;50.918;7.092;2024-02-26T05:18:57;8.70;66.30
81842;DHT22;71284;50.918;7.092;2024-02-26T05:21:23;8.60;66.00
81842;DHT22;71284;50.918;7.092;2024-02-26T05:23:50;8.80;66.20
81842;DHT22;71284;50.918;7.092;2024-02-26T05:26:22;8.80;65.90
81842;DHT22;71284;50.918;7.092;2024-02-26T05:28:48;8.90;66.00
81842;DHT22;71284;50.918;7.092;2024-02-26T05:31:15;8.90;65.60
81842;DHT22;71284;50.918;7.092;2024-02-26T05:33:41;8.80;65.50
81842;DHT22;71284;50.918;7.092;2024-02-26T05:36:08;9.10;65.40
81842;DHT22;71284;50.918;7.092;2024-02-26T05:38:34;9.20;64.80
81842;DHT22;71284;50.918;7.092;2024-02-26T05:41:01;9.10;65.40
81842;DHT22;71284;50.918;7.092;2024-02-26T05:43:28;9.00;64.70
81842;DHT22;71284;50.918;7.092;2024-02-26T05:45:54;9.10;64.80
81842;DHT22;71284;50.918;7.092;2024-02-26T05:48:21;9.10;64.80
81842;DHT22;71284;50.918;7.092;2024-02-26T05:50:47;9.00;66.00
81842;DHT22;71284;50.918;7.092;2024-02-26T05:53:14;9.10;65.20
81842;DHT22;71284;50.918;7.092;2024-02-26T05:55:40;9.10;65.40
81842;DHT22;71284;50.918;7.092;2024-02-26T05:58:07;9.00;65.20
81842;DHT22;71284;50.918;7.092;2024-02-26T06:00:34;8.90;65.50
81842;DHT22;71284;50.918;7.092;2024-02-26T06:03:00;8.90;65.30
81842;DHT22;71284;50.918;7.092;2024-02-26T06:05:27;8.90;65.90
81842;DHT22;71284;50.918;7.092;2024-02-26T06:07:53;8.90;65.80
81842;DHT22;71284;50.918;7.092;2024-02-26T06:10:20;8.90;65.90
81842;DHT22;71284;50.918;7.092;2024-02-26T06:12:47;8.90;65.50
81842;DHT22;71284;50.918;7.092;2024-02-26T06:15:13;9.00;65.10
81842;DHT22;71284;50.918;7.092;2024-02-26T06:17:40;9.00;65.40
81842;DHT22;71284;50.918;7.092;2024-02-26T06:20:07;9.00;65.30
81842;DHT22;71284;50.918;7.092;2024-02-26T06:22:33;9.20;65.60
81842;DHT22;71284;50.918;7.092;2024-02-26T06:25:00;9.10;64.70
81842;DHT22;71284;50.918;7.092;2024-02-26T06:27:27;9.30;64.10
81842;DHT22;71284;50.918;7.092;2024-02-26T06:29:53;9.30;63.60
81842;DHT22;71284;50.918;7.092;2024-02-26T06:32:20;9.40;63.90
81842;DHT22;71284;50.918;7.092;2024-02-26T06:34:46;9.30;63.90
81842;DHT22;71284;50.918;7.092;2024-02-26T06:37:13;9.10;64.30
81842;DHT22;71284;50.918;7.092;2024-02-26T06:39:40;8.90;65.10
81842;DHT22;71284;50.918;7.092;2024-02-26T06:42:06;8.90;65.20
81842;DHT22;71284;50.918;7.092;2024-02-26T06:44:33;8.70;65.60
81842;DHT22;71284;50.918;7.092;2024-02-26T06:46:59;8.60;66.00
81842;DHT22;71284;50.918;7.092;2024-02-26T06:49:26;8.80;66.00
81842;DHT22;71284;50.918;7.092;2024-02-26T06:51:53;8.70;66.70
81842;DHT22;71284;50.918;7.092;2024-02-26T06:54:19;8.70;65.90
81842;DHT22;71284;50.918;7.092;2024-02-26T06:56:46;8.50;66.40
81842;DHT22;71284;50.918;7.092;2024-02-26T06:59:12;8.70;66.50
81842;DHT22;71284;50.918;7.092;2024-02-26T07:01:41;8.70;66.60
81842;DHT22;71284;50.918;7.092;2024-02-26T07:04:07;8.50;66.50
81842;DHT22;71284;50.918;7.092;2024-02-26T07:06:34;8.50;66.90
81842;DHT22;71284;50.918;7.092;2024-02-26T07:09:00;8.70;66.40
81842;DHT22;71284;50.918;7.092;2024-02-26T07:11:27;8.60;66.20
81842;DHT22;71284;50.918;7.092;2024-02-26T07:13:53;8.70;66.70
81842;DHT22;71284;50.918;7.092;2024-02-26T07:16:20;8.80;65.70
81842;DHT22;71284;50.918;7.092;2024-02-26T07:18:47;8.70;66.20
81842;DHT22;71284;50.918;7.092;2024-02-26T07:21:13;8.80;65.80
81842;DHT22;71284;50.918;7.092;2024-02-26T07:23:40;8.60;66.20
81842;DHT22;71284;50.918;7.092;2024-02-26T07:26:06;8.50;67.00
81842;DHT22;71284;50.918;7.092;2024-02-26T07:28:33;8.40;66.40
81842;DHT22;71284;50.918;7.092;2024-02-26T07:30:59;8.40;67.20
81842;DHT22;71284;50.918;7.092;2024-02-26T07:33:26;8.50;66.60
81842;DHT22;71284;50.918;7.092;2024-02-26T07:35:53;8.30;67.20
81842;DHT22;71284;50.918;7.092;2024-02-26T07:38:19;8.30;67.50
81842;DHT22;71284;50.918;7.092;2024-02-26T07:40:46;8.10;67.90
81842;DHT22;71284;50.918;7.092;2024-02-26T07:43:12;7.70;69.50
81842;DHT22;71284;50.918;7.092;2024-02-26T07:45:39;7.80;70.10
81842;DHT22;71284;50.918;7.092;2024-02-26T07:48:06;8.00;69.20
81842;DHT22;71284;50.918;7.092;2024-02-26T07:50:33;8.30;68.30
81842;DHT22;71284;50.918;7.092;2024-02-26T07:52:59;8.50;68.10
81842;DHT22;71284;50.918;7.092;2024-02-26T07:55:26;7.90;69.70
81842;DHT22;71284;50.918;7.092;2024-02-26T07:57:53;8.00;69.20
81842;DHT22;71284;50.918;7.092;2024-02-26T08:00:20;7.90;70.00
81842;DHT22;71284;50.918;7.092;2024-02-26T08:02:46;8.00;69.00
81842;DHT22;71284;50.918;7.092;2024-02-26T08:05:13;8.00;69.10
81842;DHT22;71284;50.918;7.092;2024-02-26T08:07:40;7.80;69.60
81842;DHT22;71284;50.918;7.092;2024-02-26T08:10:06;7.90;69.70
81842;DHT22;71284;50.918;7.092;2024-02-26T08:12:33;8.00;68.90
81842;DHT22;71284;50.918;7.092;2024-02-26T08:15:00;7.90;70.10
81842;DHT22;71284;50.918;7.092;2024-02-26T08:17:26;8.00;69.70
81842;DHT22;71284;50.918;7.092;2024-02-26T08:19:53;8.00;69.30
81842;DHT22;71284;50.918;7.092;2024-02-26T08:22:19;8.30;68.60
81842;DHT22;71284;50.918;7.092;2024-02-26T08:24:46;8.30;69.20
81842;DHT22;71284;50.918;7.092;2024-02-26T08:27:13;8.20;68.50
81842;DHT22;71284;50.918;7.092;2024-02-26T08:29:39;8.30;67.80
81842;DHT22;71284;50.918;7.092;2024-02-26T08:32:06;8.20;68.30
81842;DHT22;71284;50.918;7.092;2024-02-26T08:34:33;8.50;67.90
81842;DHT22;71284;50.918;7.092;2024-02-26T08:36:59;8.60;67.30
81842;DHT22;71284;50.918;7.092;2024-02-26T08:39:26;8.70;67.10
81842;DHT22;71284;50.918;7.092;2024-02-26T08:41:52;8.70;66.20
81842;DHT22;71284;50.918;7.092;2024-02-26T08:44:19;8.60;66.70
81842;DHT22;71284;50.918;7.092;2024-02-26T08:46:45;8.60;66.70
81842;DHT22;71284;50.918;7.092;2024-02-26T08:49:12;8.30;67.40
81842;DHT22;71284;50.918;7.092;2024-02-26T08:51:42;8.50;67.10
81842;DHT22;71284;50.918;7.092;2024-02-26T08:54:08;8.70;66.80
81842;DHT22;71284;50.918;7.092;2024-02-26T08:56:35;8.90;66.60
81842;DHT22;71284;50.918;7.092;2024-02-26T08:59:01;8.80;65.90
81842;DHT22;71284;50.918;7.092;2024-02-26T09:01:28;8.70;66.90
81842;DHT22;71284;50.918;7.092;2024-02-26T09:03:55;8.60;66.90
81842;DHT22;71284;50.918;7.092;2024-02-26T09:06:21;8.70;66.80
81842;DHT22;71284;50.918;7.092;2024-02-26T09:08:48;8.80;66.70
81842;DHT22;71284;50.918;7.092;2024-02-26T09:11:14;8.20;68.50
81842;DHT22;71284;50.918;7.092;2024-02-26T09:13:41;8.50;67.90
81842;DHT22;71284;50.918;7.092;2024-02-26T09:16:07;8.80;66.80
81842;DHT22;71284;50.918;7.092;2024-02-26T09:18:34;9.00;65.50
81842;DHT22;71284;50.918;7.092;2024-02-26T09:21:04;9.20;65.00
81842;DHT22;71284;50.918;7.092;2024-02-26T09:23:27;9.20;64.80
81842;DHT22;71284;50.918;7.092;2024-02-26T09:25:54;9.30;65.00
81842;DHT22;71284;50.918;7.092;2024-02-26T09:28:21;9.40;64.20
81842;DHT22;71284;50.918;7.092;2024-02-26T09:30:47;9.50;64.30
81842;DHT22;71284;50.918;7.092;2024-02-26T09:33:14;9.20;64.50
81842;DHT22;71284;50.918;7.092;2024-02-26T09:35:40;9.10;65.60
81842;DHT22;71284;50.918;7.092;2024-02-26T09:38:07;9.00;65.50
81842;DHT22;71284;50.918;7.092;2024-02-26T09:40:33;9.00;65.30
81842;DHT22;71284;50.918;7.092;2024-02-26T09:43:00;9.30;64.80
81842;DHT22;71284;50.918;7.092;2024-02-26T09:45:27;9.30;64.40
81842;DHT22;71284;50.918;7.092;2024-02-26T09:47:55;9.00;64.60
81842;DHT22;71284;50.918;7.092;2024-02-26T09:50:20;8.90;65.50
81842;DHT22;71284;50.918;7.092;2024-02-26T09:52:47;8.90;65.40
81842;DHT22;71284;50.918;7.092;2024-02-26T09:55:13;9.20;64.80
81842;DHT22;71284;50.918;7.092;2024-02-26T09:57:46;9.20;65.20
81842;DHT22;71284;50.918;7.092;2024-02-26T10:00:08;9.00;64.60
81842;DHT22;71284;50.918;7.092;2024-02-26T10:02:36;9.20;64.30
81842;DHT22;71284;50.918;7.092;2024-02-26T10:05:02;9.30;64.20
81842;DHT22;71284;50.918;7.092;2024-02-26T10:07:29;9.30;65.00
81842;DHT22;71284;50.918;7.092;2024-02-26T10:09:56;9.20;64.70
81842;DHT22;71284;50.918;7.092;2024-02-26T10:12:22;9.10;65.80
81842;DHT22;71284;50.918;7.092;2024-02-26T10:14:49;9.10;65.50
81842;DHT22;71284;50.918;7.092;2024-02-26T10:17:15;9.20;64.70
81842;DHT22;71284;50.918;7.092;2024-02-26T10:19:42;9.30;64.70
81842;DHT22;71284;50.918;7.092;2024-02-26T10:22:08;9.40;65.10
81842;DHT22;71284;50.918;7.092;2024-02-26T10:24:35;9.20;64.00
81842;DHT22;71284;50.918;7.092;2024-02-26T10:27:02;8.90;66.40
81842;DHT22;71284;50.918;7.092;2024-02-26T10:29:28;9.00;66.00
81842;DHT22;71284;50.918;7.092;2024-02-26T10:31:55;9.20;66.00
81842;DHT22;71284;50.918;7.092;2024-02-26T10:34:22;9.10;65.80
81842;DHT22;71284;50.918;7.092;2024-02-26T10:36:49;9.50;65.20
81842;DHT22;71284;50.918;7.092;2024-02-26T10:39:15;9.60;64.50
81842;DHT22;71284;50.918;7.092;2024-02-26T10:41:42;9.40;65.00
81842;DHT22;71284;50.918;7.092;2024-02-26T10:44:09;9.50;65.70
81842;DHT22;71284;50.918;7.092;2024-02-26T10:46:36;9.70;65.80
81842;DHT22;71284;50.918;7.092;2024-02-26T10:49:02;9.70;65.00
81842;DHT22;71284;50.918;7.092;2024-02-26T10:51:29;9.70;63.80
81842;DHT22;71284;50.918;7.092;2024-02-26T10:53:56;9.60;65.50
81842;DHT22;71284;50.918;7.092;2024-02-26T10:56:24;9.80;64.70
81842;DHT22;71284;50.918;7.092;2024-02-26T10:58:49;9.70;64.50
81842;DHT22;71284;50.918;7.092;2024-02-26T11:01:15;9.50;65.10
81842;DHT22;71284;50.918;7.092;2024-02-26T11:03:42;9.80;65.50
81842;DHT22;71284;50.918;7.092;2024-02-26T11:06:09;10.00;64.00
81842;DHT22;71284;50.918;7.092;2024-02-26T11:08:35;10.00;64.10
81842;DHT22;71284;50.918;7.092;2024-02-26T11:11:02;10.00;64.60
81842;DHT22;71284;50.918;7.092;2024-02-26T11:13:28;10.10;63.90
81842;DHT22;71284;50.918;7.092;2024-02-26T11:15:56;10.20;63.60
81842;DHT22;71284;50.918;7.092;2024-02-26T11:18:23;9.90;64.30
81842;DHT22;71284;50.918;7.092;2024-02-26T11:20:49;9.80;64.90
81842;DHT22;71284;50.918;7.092;2024-02-26T11:23:16;10.00;65.10
81842;DHT22;71284;50.918;7.092;2024-02-26T11:25:43;10.00;63.90
81842;DHT22;71284;50.918;7.092;2024-02-26T11:28:11;9.40;65.50
81842;DHT22;71284;50.918;7.092;2024-02-26T11:30:37;9.50;66.00
81842;DHT22;71284;50.918;7.092;2024-02-26T11:33:02;9.80;65.70
81842;DHT22;71284;50.918;7.092;2024-02-26T11:35:29;10.10;64.80
81842;DHT22;71284;50.918;7.092;2024-02-26T11:37:56;10.20;63.90
81842;DHT22;71284;50.918;7.092;2024-02-26T11:40:23;10.00;65.00
81842;DHT22;71284;50.918;7.092;2024-02-26T11:42:50;10.20;64.80
81842;DHT22;71284;50.918;7.092;2024-02-26T11:47:56;10.00;64.80
81842;DHT22;71284;50.918;7.092;2024-02-26T11:50:35;9.70;67.00
81842;DHT22;71284;50.918;7.092;2024-02-26T11:55:39;9.70;66.80
81842;DHT22;71284;50.918;7.092;2024-02-26T11:58:06;10.20;65.80
81842;DHT22;71284;50.918;7.092;2024-02-26T12:00:32;10.40;65.50
81842;DHT22;71284;50.918;7.092;2024-02-26T12:02:59;10.30;65.00
81842;DHT22;71284;50.918;7.092;2024-02-26T12:05:26;10.50;64.70
81842;DHT22;71284;50.918;7.092;2024-02-26T12:07:53;10.60;64.80
81842;DHT22;71284;50.918;7.092;2024-02-26T12:10:31;10.60;64.50
81842;DHT22;71284;50.918;7.092;2024-02-26T12:13:00;10.40;65.70
81842;DHT22;71284;50.918;7.092;2024-02-26T12:15:31;10.50;65.00
81842;DHT22;71284;50.918;7.092;2024-02-26T12:17:57;10.60;65.60
81842;DHT22;71284;50.918;7.092;2024-02-26T12:20:24;10.80;64.80
81842;DHT22;71284;50.918;7.092;2024-02-26T12:22:50;10.90;64.40
81842;DHT22;71284;50.918;7.092;2024-02-26T12:25:17;10.70;64.50
81842;DHT22;71284;50.918;7.092;2024-02-26T12:27:43;10.60;64.50
81842;DHT22;71284;50.918;7.092;2024-02-26T12:30:11;10.90;63.50
81842;DHT22;71284;50.918;7.092;2024-02-26T12:32:38;10.90;64.20
81842;DHT22;71284;50.918;7.092;2024-02-26T12:35:05;10.70;64.40
81842;DHT22;71284;50.918;7.092;2024-02-26T12:37:32;10.80;64.80
81842;DHT22;71284;50.918;7.092;2024-02-26T12:39:58;10.70;64.70
81842;DHT22;71284;50.918;7.092;2024-02-26T12:42:25;10.60;63.90
81842;DHT22;71284;50.918;7.092;2024-02-26T12:44:52;10.50;65.40
81842;DHT22;71284;50.918;7.092;2024-02-26T12:47:18;10.60;64.80
81842;DHT22;71284;50.918;7.092;2024-02-26T12:49:48;11.00;63.70
81842;DHT22;71284;50.918;7.092;2024-02-26T12:52:14;10.80;64.10
81842;DHT22;71284;50.918;7.092;2024-02-26T12:54:41;10.90;64.20
81842;DHT22;71284;50.918;7.092;2024-02-26T12:57:08;10.90;62.70
81842;DHT22;71284;50.918;7.092;2024-02-26T12:59:34;11.00;63.90
81842;DHT22;71284;50.918;7.092;2024-02-26T13:02:00;10.90;63.00
81842;DHT22;71284;50.918;7.092;2024-02-26T13:04:28;10.90;63.90
81842;DHT22;71284;50.918;7.092;2024-02-26T13:06:54;10.80;64.20
81842;DHT22;71284;50.918;7.092;2024-02-26T13:09:20;11.10;64.10
81842;DHT22;71284;50.918;7.092;2024-02-26T13:11:47;11.30;63.00
81842;DHT22;71284;50.918;7.092;2024-02-26T13:14:20;11.20;63.60
81842;DHT22;71284;50.918;7.092;2024-02-26T13:16:54;11.20;63.10
81842;DHT22;71284;50.918;7.092;2024-02-26T13:19:20;11.20;62.90
81842;DHT22;71284;50.918;7.092;2024-02-26T13:21:47;10.90;62.80
81842;DHT22;71284;50.918;7.092;2024-02-26T13:24:14;10.90;65.10
81842;DHT22;71284;50.918;7.092;2024-02-26T13:26:41;11.00;64.60
81842;DHT22;71284;50.918;7.092;2024-02-26T13:29:07;11.20;64.10
81842;DHT22;71284;50.918;7.092;2024-02-26T13:31:39;11.20;63.10
81842;DHT22;71284;50.918;7.092;2024-02-26T13:34:06;11.10;62.30
81842;DHT22;71284;50.918;7.092;2024-02-26T13:36:32;11.20;64.10
81842;DHT22;71284;50.918;7.092;2024-02-26T13:38:59;11.50;63.30
81842;DHT22;71284;50.918;7.092;2024-02-26T13:41:25;11.30;62.80
81842;DHT22;71284;50.918;7.092;2024-02-26T13:43:52;11.00;64.10
81842;DHT22;71284;50.918;7.092;2024-02-26T13:46:19;11.00;63.60
81842;DHT22;71284;50.918;7.092;2024-02-26T13:48:45;10.80;63.90
81842;DHT22;71284;50.918;7.092;2024-02-26T13:51:12;10.50;64.70
81842;DHT22;71284;50.918;7.092;2024-02-26T13:53:38;10.60;65.00
81842;DHT22;71284;50.918;7.092;2024-02-26T13:56:05;10.80;64.20
81842;DHT22;71284;50.918;7.092;2024-02-26T13:58:32;10.50;64.50
81842;DHT22;71284;50.918;7.092;2024-02-26T14:00:58;10.40;64.20
81842;DHT22;71284;50.918;7.092;2024-02-26T14:03:25;10.10;64.50
81842;DHT22;71284;50.918;7.092;2024-02-26T14:05:51;10.30;64.30
81842;DHT22;71284;50.918;7.092;2024-02-26T14:08:18;10.60;64.50
81842;DHT22;71284;50.918;7.092;2024-02-26T14:10:45;10.50;64.60
81842;DHT22;71284;50.918;7.092;2024-02-26T14:13:11;10.60;64.50
81842;DHT22;71284;50.918;7.092;2024-02-26T14:15:38;10.60;64.90
81842;DHT22;71284;50.918;7.092;2024-02-26T14:18:04;10.60;63.80
81842;DHT22;71284;50.918;7.092;2024-02-26T14:20:31;10.60;64.20
81842;DHT22;71284;50.918;7.092;2024-02-26T14:22:58;10.40;63.80
81842;DHT22;71284;50.918;7.092;2024-02-26T14:25:24;10.50;65.00
81842;DHT22;71284;50.918;7.092;2024-02-26T14:27:51;10.60;64.60
81842;DHT22;71284;50.918;7.092;2024-02-26T14:30:17;10.90;64.30
81842;DHT22;71284;50.918;7.092;2024-02-26T14:32:44;10.90;63.60
81842;DHT22;71284;50.918;7.092;2024-02-26T14:35:11;10.70;63.80
81842;DHT22;71284;50.918;7.092;2024-02-26T14:37:37;10.90;63.70
81842;DHT22;71284;50.918;7.092;2024-02-26T14:40:04;10.90;63.20
81842;DHT22;71284;50.918;7.092;2024-02-26T14:42:31;11.10;63.00
81842;DHT22;71284;50.918;7.092;2024-02-26T14:44:58;11.20;62.40
81842;DHT22;71284;50.918;7.092;2024-02-26T14:47:25;11.40;63.30
81842;DHT22;71284;50.918;7.092;2024-02-26T14:49:51;11.50;62.60
81842;DHT22;71284;50.918;7.092;2024-02-26T14:52:18;11.50;62.50
81842;DHT22;71284;50.918;7.092;2024-02-26T14:54:44;11.60;62.50
81842;DHT22;71284;50.918;7.092;2024-02-26T14:57:11;11.50;62.30
81842;DHT22;71284;50.918;7.092;2024-02-26T14:59:37;11.60;62.30
81842;DHT22;71284;50.918;7.092;2024-02-26T15:02:04;11.50;63.30
81842;DHT22;71284;50.918;7.092;2024-02-26T15:04:31;11.60;63.00
81842;DHT22;71284;50.918;7.092;2024-02-26T15:06:57;11.60;62.20
81842;DHT22;71284;50.918;7.092;2024-02-26T15:09:24;11.60;62.50
81842;DHT22;71284;50.918;7.092;2024-02-26T15:11:50;11.50;62.80
81842;DHT22;71284;50.918;7.092;2024-02-26T15:14:17;11.50;62.80
81842;DHT22;71284;50.918;7.092;2024-02-26T15:16:44;11.70;63.20
81842;DHT22;71284;50.918;7.092;2024-02-26T15:19:10;11.70;62.70
81842;DHT22;71284;50.918;7.092;2024-02-26T15:21:43;11.90;62.40
81842;DHT22;71284;50.918;7.092;2024-02-26T15:24:08;11.90;62.00
81842;DHT22;71284;50.918;7.092;2024-02-26T15:26:35;11.90;61.50
81842;DHT22;71284;50.918;7.092;2024-02-26T15:29:02;11.90;62.20
81842;DHT22;71284;50.918;7.092;2024-02-26T15:31:28;11.90;62.30
81842;DHT22;71284;50.918;7.092;2024-02-26T15:33:55;12.00;62.10
81842;DHT22;71284;50.918;7.092;2024-02-26T15:36:21;12.00;62.00
81842;DHT22;71284;50.918;7.092;2024-02-26T15:38:48;12.00;61.70
81842;DHT22;71284;50.918;7.092;2024-02-26T15:41:15;12.00;61.60
81842;DHT22;71284;50.918;7.092;2024-02-26T15:43:42;12.00;62.00